Terminal Aerodrome Forecast
Issued by NWS

Home | Current Version | Previous Version | Text Only | Print | Product List | Glossary On
Versions: 1 2 3 4 5 6 7 8 9 10 11 12 13 14 15 16 17 18 19 20 21 22 23 24 25 26 27 28 29 30 31 32 33 34 35 36
000
FTUS46 KEKA 242340
TAFACV
TAF
KACV 242340Z 2500/2524 20013G18KT P6SM FEW050
     FM250600 16015KT P6SM BKN045 OVC080 WS010/16030KT
     FM250900 16015G22KT 5SM -RA BR BKN025 OVC035 WS010/16030KT
     FM251600 16018G25KT 6SM -RA SCT025 OVC050
     FM252000 17015KT P6SM -SHRA OVC025 PROB30 2520/2523 P6SM -TSRA
      BKN025CB=

USA.gov is the U.S. government's official web portal to all federal, state and local government web resources and services.